Buoy 21530

sailwx.info

Track history (hours):
 
Tides and Currents Weather Stations Pressure Air Temp Water Temp Dewpoint Dewpoint Depression Visibility Wind Speed Wind Dir Waves Ship Positions

Drifting buoy 21530

Last reported at 2017-Sep-21 19:00 UTC. Time now 2017-Sep-21 23:13 UTC.
Position N 24°21' W 134°11'.

Barometer 1019.6 mb
Water temperature 23.4 ° C

Date/timePositionNaut miles runAvg speedWind from/ knotsBaromVisibWave heightAir tempDewpointWater temp
2017-Sep-21 19:00N 24°21' W 134°11'1 0.5 1019.6 23.4
2017-Sep-21 18:00N 24°21' W 134°11'2 2.4 1019.7 23.4
2017-Sep-21 17:00N 24°23' W 134°10'0 0.0 1019.4 23.4
2017-Sep-21 16:00N 24°23' W 134°10'2 1.7 1018.8 23.4
2017-Sep-21 15:00N 24°23' W 134°08'1 0.8 1018.4 23.4
2017-Sep-21 14:00N 24°24' W 134°08'2 1.6 1018.0 23.4
2017-Sep-21 13:00N 24°25' W 134°07'3 2.8 1018.0 23.4
2017-Sep-21 12:00N 24°27' W 134°05'0 0.0 1017.7 23.4
2017-Sep-21 11:00N 24°27' W 134°05'0 0.0 1018.3 23.4
2017-Sep-21 07:00N 24°27' W 134°05'2 1.6 1018.9 23.5
2017-Sep-21 06:00N 24°27' W 134°03'1 0.8 1018.9 23.5
2017-Sep-21 05:00N 24°28' W 134°02'1 1.1 1018.4 23.4
2017-Sep-21 04:00N 24°28' W 134°01'1 0.8 1017.8 23.4
2017-Sep-21 03:00N 24°28' W 134°01'1 0.8 1017.6 23.4
2017-Sep-21 02:00N 24°29' W 134°00'2 2.4 1017.3 23.4
2017-Sep-21 01:00N 24°31' W 133°58'0 0.0
2017-Sep-21 00:00N 24°31' W 133°58'0 0.0 1017.1 23.4
2017-Sep-20 23:00N 24°31' W 133°58'5 1.2 1017.6 23.4
2017-Sep-20 19:00N 24°34' W 133°54'2 1.6 1019.5 23.2
2017-Sep-20 18:00N 24°35' W 133°53'1 0.8 1019.6 23.2
2017-Sep-20 17:00N 24°35' W 133°52'0 0.0 1019.2 23.1
2017-Sep-20 16:00N 24°35' W 133°52'1 1.3 1019.0 23.1
2017-Sep-20 15:00N 24°37' W 133°52'1 1.2 1018.6 23.1
2017-Sep-20 14:00N 24°37' W 133°50'2 1.8 1018.0 23.1
2017-Sep-20 13:00N 24°39' W 133°50'2 2.2 1018.0 23.1
2017-Sep-20 12:00N 24°39' W 133°53'4 4.1 1017.9 23.1
2017-Sep-20 11:00N 24°41' W 133°49'1 0.3 1018.0 23.1
2017-Sep-20 07:00N 24°42' W 133°48'0 0.0 1019.6 23.1
2017-Sep-20 06:00N 24°42' W 133°48'1 0.8 1019.5 23.1
2017-Sep-20 05:00N 24°43' W 133°47'0 0.0 1019.2 23.1
2017-Sep-20 04:00N 24°43' W 133°47'1 0.8 1018.6 23.1
2017-Sep-20 03:00N 24°43' W 133°47'1 0.8 1018.1 23.1
2017-Sep-20 02:00N 24°44' W 133°46'0 0.0 1018.0 23.1
2017-Sep-20 01:00N 24°44' W 133°46'1 0.8 1017.6 23.1
2017-Sep-20 00:00N 24°44' W 133°46'0 0.0 1017.8 23.1
2017-Sep-19 23:00N 24°44' W 133°46'3 1.4 1018.2 23.1
2017-Sep-19 21:00N 24°44' W 133°43'2 1.6 1019.3 23.1
2017-Sep-19 20:00N 24°46' W 133°41'0 0.0 1020.0 23.1
2017-Sep-19 19:00N 24°46' W 133°41'2 1.7 1020.2 23.0
2017-Sep-19 18:00N 24°46' W 133°40'1 0.5 1020.0 23.0
2017-Sep-19 17:00N 24°46' W 133°39'2 1.6 1019.6 23.0
2017-Sep-19 16:00N 24°47' W 133°38'0 0.0 1019.1 23.0
2017-Sep-19 15:00N 24°47' W 133°38'2 2.5 1018.7 23.0
2017-Sep-19 14:00N 24°49' W 133°35'1 0.8 1018.6 23.0
2017-Sep-19 13:00N 24°49' W 133°35'0 0.0 1018.2 23.0
2017-Sep-19 12:00N 24°49' W 133°35'5 4.7 1018.2 23.0
2017-Sep-19 11:00N 24°53' W 133°32'0 0.0 1018.4 23.0
2017-Sep-19 10:00N 24°53' W 133°32'0 0.0 1018.6 23.0
2017-Sep-19 07:00N 24°53' W 133°32'1 0.8 1019.5 23.0
2017-Sep-19 06:00N 24°54' W 133°32'1 0.6 1019.4 23.0
2017-Sep-19 05:00N 24°55' W 133°32'1 0.8 1019.2 23.1
2017-Sep-19 04:00N 24°55' W 133°31'1 0.8 1018.7 23.1
2017-Sep-19 03:00N 24°56' W 133°31'0 0.0 1018.2 23.1
2017-Sep-19 02:00N 24°56' W 133°31'1 0.5 1017.7 23.1
2017-Sep-19 01:00N 24°56' W 133°30'1 0.8 1017.8 23.1
2017-Sep-19 00:00N 24°56' W 133°29'0 0.0 1017.6 23.1
2017-Sep-18 23:00N 24°56' W 133°29'2 2.0 1018.0 23.1
2017-Sep-18 22:00N 24°58' W 133°28'1 0.3 1018.3 23.2
2017-Sep-18 19:00N 24°58' W 133°27'1 1.1 1019.7 23.1
2017-Sep-18 18:00N 24°58' W 133°26'1 0.8 1019.6 23.1
2017-Sep-18 17:00N 24°59' W 133°25'0 0.0 1019.3 23.0
2017-Sep-18 16:00N 24°59' W 133°25'2 2.3 1018.6 23.0
2017-Sep-18 15:00N 24°59' W 133°23'0 0.0 1018.0 23.0
2017-Sep-18 14:00N 24°59' W 133°23'2 1.6 1017.4 23.0
2017-Sep-18 13:00N 25°01' W 133°22'1 0.8 1017.2 23.0
2017-Sep-18 12:00N 25°01' W 133°21'4 2.0 1017.5 23.1
2017-Sep-18 10:00N 25°04' W 133°18'0 0.0 1018.0 23.1
2017-Sep-18 07:00N 25°04' W 133°18'1 1.2 1019.0 23.1
2017-Sep-18 06:00N 25°05' W 133°17'1 0.6 1018.8 23.1
2017-Sep-18 05:00N 25°05' W 133°17'1 0.8 1018.7 23.2
2017-Sep-18 04:00N 25°06' W 133°16'1 1.1 1018.1 23.2
2017-Sep-18 03:00N 25°06' W 133°15'2 1.9 1017.7 23.2
2017-Sep-18 02:00N 25°08' W 133°14'0 0.0 1017.5 23.2
2017-Sep-18 00:00N 25°08' W 133°14'4 1.9 1017.5 23.3
2017-Sep-17 22:00N 25°11' W 133°13'0 0.0 1018.2 23.3
2017-Sep-17 20:00N 25°11' W 133°13'1 0.5 1019.1 23.2
2017-Sep-17 19:00N 25°11' W 133°13'2 1.9 1019.4 23.1
2017-Sep-17 18:00N 25°13' W 133°13'1 0.8 1019.5 23.1
2017-Sep-17 17:00N 25°14' W 133°13'0 0.0 1019.2 23.1
2017-Sep-17 16:00N 25°14' W 133°13'0 0.0 1018.8 23.0
2017-Sep-17 15:00N 25°14' W 133°13'1 0.8 1018.6 23.0
2017-Sep-17 14:00N 25°14' W 133°12'1 0.5 1018.4 23.1
2017-Sep-17 13:00N 25°14' W 133°13'4 4.0 1017.8 23.1
2017-Sep-17 12:00N 25°17' W 133°09'0 0.0 1017.9 23.1
2017-Sep-17 10:00N 25°17' W 133°09'2 0.4 1018.9 23.1
2017-Sep-17 06:00N 25°18' W 133°08'1 1.3 1019.3 23.1
2017-Sep-17 05:00N 25°19' W 133°07'0 0.0 1018.7 23.2
2017-Sep-17 04:00N 25°19' W 133°07'3 2.6 1018.2 23.2
2017-Sep-17 03:00N 25°22' W 133°06'0 0.0 1017.8 23.2
2017-Sep-17 02:00N 25°22' W 133°06'1 0.8 1017.7 23.2
2017-Sep-17 01:00N 25°22' W 133°05'0 0.0 1017.9 23.2
2017-Sep-17 00:00N 25°22' W 133°05'1 1.2 1018.0 23.2
2017-Sep-16 23:00N 25°23' W 133°05'2 2.1 1018.3 23.2
2017-Sep-16 22:00N 25°25' W 133°04'0 0.0 1018.9 23.2
2017-Sep-16 19:00N 25°25' W 133°04'2 0.8 1020.6 23.2
2017-Sep-16 17:00N 25°26' W 133°03'0 0.0 1020.6 23.3
2017-Sep-16 16:00N 25°26' W 133°03'1 0.5 1020.0 23.3
2017-Sep-16 15:00N 25°26' W 133°02'1 0.8 1019.6 23.3
2017-Sep-16 14:00N 25°27' W 133°02'0 0.0 1019.0 23.3
2017-Sep-16 13:00N 25°27' W 133°02'4 3.7 1018.6 23.3
2017-Sep-16 12:00N 25°29' W 132°58'0 0.0 1018.6 23.3
2017-Sep-16 10:00N 25°29' W 132°58'0 0.0 1019.3 23.4
2017-Sep-16 07:00N 25°29' W 132°58'1 1.2 1020.1 23.4
2017-Sep-16 06:00N 25°29' W 132°57'0 0.0 1020.2 23.4
2017-Sep-16 05:00N 25°29' W 132°57'1 1.2 1019.8 23.4
2017-Sep-16 04:00N 25°30' W 132°56'1 0.8 1019.1 23.4
2017-Sep-16 03:00N 25°31' W 132°55'1 0.5 1018.6 23.4
2017-Sep-16 02:00N 25°31' W 132°55'1 0.8 1018.6 23.4
2017-Sep-16 01:00N 25°31' W 132°54'0 0.0 1018.4 23.4
2017-Sep-16 00:00N 25°31' W 132°54'4 3.6 1018.2 23.4
2017-Sep-15 23:00N 25°34' W 132°51'0 0.0 1018.2 23.4
2017-Sep-15 22:00N 25°34' W 132°51'1 0.2 1018.5 23.4
2017-Sep-15 19:00N 25°34' W 132°50'1 0.8 1020.0 23.3
2017-Sep-15 18:00N 25°34' W 132°50'0 0.0 1020.0 23.3
2017-Sep-15 17:00N 25°34' W 132°50'0 0.0 1019.7 23.3
2017-Sep-15 16:00N 25°34' W 132°50'1 1.3 1019.4 23.3
2017-Sep-15 15:00N 25°35' W 132°49'0 0.0 1018.8 23.2
2017-Sep-15 14:00N 25°35' W 132°49'2 2.5 1018.3 23.2
2017-Sep-15 13:00N 25°37' W 132°47'0 0.0 1017.8 23.2
2017-Sep-15 12:00N 25°37' W 132°47'1 0.2 1017.8 23.2
2017-Sep-15 07:00N 25°37' W 132°46'1 1.1 1019.0 23.3
2017-Sep-15 06:00N 25°37' W 132°45'1 0.6 1019.1 23.2
2017-Sep-15 05:00N 25°38' W 132°45'1 0.5 1018.8 23.3
2017-Sep-15 04:00N 25°38' W 132°44'1 0.6 1017.9 23.3
2017-Sep-15 03:00N 25°38' W 132°44'1 0.5 1017.2 23.4
2017-Sep-15 02:00N 25°38' W 132°44'1 0.8 1016.7 23.5
2017-Sep-15 01:00N 25°39' W 132°43'1 0.5 1016.4 23.5
2017-Sep-15 00:00N 25°39' W 132°43'0 0.0 1016.4 23.5
2017-Sep-14 23:00N 25°39' W 132°43'0 0.0 1016.8 23.5
2017-Sep-14 22:00N 25°39' W 132°43'2 0.8 1017.1 23.5
2017-Sep-14 19:00N 25°41' W 132°41'1 0.8 1018.6 23.2
2017-Sep-14 18:00N 25°41' W 132°40'1 0.5 1018.6 23.1
2017-Sep-14 17:00N 25°41' W 132°40'0 0.0 1018.2 23.1
2017-Sep-14 16:00N 25°41' W 132°40'1 0.6 1017.9 23.1
2017-Sep-14 14:00N 25°43' W 132°40'1 0.8 1016.8 23.1
2017-Sep-14 13:00N 25°43' W 132°39'1 0.8 1016.5 23.1
2017-Sep-14 12:00N 25°44' W 132°40'0 0.0 1016.2 23.1
2017-Sep-14 11:00N 25°44' W 132°40'1 0.3 1016.2 23.1
2017-Sep-14 07:00N 25°45' W 132°40'2 1.7 1017.1 23.1
2017-Sep-14 06:00N 25°46' W 132°38'0 0.0 1017.2 23.1
2017-Sep-14 05:00N 25°46' W 132°38'1 0.5 1016.7 23.1
2017-Sep-14 04:00N 25°46' W 132°39'1 0.6 1015.9 23.1
2017-Sep-14 03:00N 25°46' W 132°39'1 1.1 1015.6 23.2
2017-Sep-14 02:00N 25°46' W 132°38'1 0.8 1015.6 23.2
2017-Sep-14 01:00N 25°47' W 132°38'1 0.5 1015.6 23.2
2017-Sep-14 00:00N 25°47' W 132°38'1 0.8 1015.7 23.2
2017-Sep-13 23:00N 25°46' W 132°38'3 0.8 1015.7 23.2
2017-Sep-13 19:00N 25°49' W 132°36'1 1.2 1017.3 23.2
2017-Sep-13 18:00N 25°49' W 132°35'1 0.5 1017.5 23.2
2017-Sep-13 17:00N 25°49' W 132°35'1 1.3 1017.3 23.2
2017-Sep-13 16:00N 25°50' W 132°35'1 1.2 1017.1 23.2
2017-Sep-13 15:00N 25°52' W 132°35'0 0.0 1016.8 23.2
2017-Sep-13 14:00N 25°52' W 132°35'1 0.5 1016.5 23.2
2017-Sep-13 13:00N 25°52' W 132°34'1 0.8 1016.3 23.2
2017-Sep-13 12:00N 25°52' W 132°35'1 1.3 1016.3 23.1
2017-Sep-13 11:00N 25°53' W 132°34'1 0.2 1016.5 23.1
2017-Sep-13 06:00N 25°54' W 132°33'1 0.5 1017.5 23.2
2017-Sep-13 05:00N 25°54' W 132°32'1 0.6 1017.0 23.2
2017-Sep-13 04:00N 25°55' W 132°32'1 0.8 1016.3 23.3
2017-Sep-13 03:00N 25°55' W 132°32'1 0.5 1015.8 23.4
2017-Sep-13 02:00N 25°55' W 132°31'1 1.2 1015.4 23.5
2017-Sep-13 01:00N 25°56' W 132°30'0 0.0 1015.4 23.5
2017-Sep-13 00:00N 25°56' W 132°30'0 0.0 1015.5 23.8
2017-Sep-12 23:00N 25°56' W 132°30'3 0.9 1015.6 23.7
2017-Sep-12 20:00N 25°56' W 132°27'1 0.6 1017.0 23.2
2017-Sep-12 19:00N 25°56' W 132°27'1 0.8 1017.3 23.2
2017-Sep-12 18:00N 25°56' W 132°26'1 0.8 1017.3 23.2
2017-Sep-12 17:00N 25°57' W 132°26'1 0.6 1017.2 23.1
2017-Sep-12 16:00N 25°58' W 132°26'1 0.8 1016.6 23.1
2017-Sep-12 15:00N 25°58' W 132°25'1 0.6 1016.1 23.1
2017-Sep-12 14:00N 25°59' W 132°25'1 0.8 1015.8 23.1
2017-Sep-12 13:00N 25°59' W 132°25'1 0.5 1015.8 23.1
2017-Sep-12 12:00N 25°59' W 132°25'3 3.5 1015.7 23.1
2017-Sep-12 11:00N 26°01' W 132°22'1 0.2 1015.9 23.1
2017-Sep-12 06:00N 26°01' W 132°20'1 0.6 1016.5 23.2
2017-Sep-12 05:00N 26°02' W 132°20'1 0.8 1016.0 23.3
2017-Sep-12 04:00N 26°02' W 132°20'1 0.6 1015.4 23.3
2017-Sep-12 03:00N 26°03' W 132°20'2 1.9 1015.1 23.4
2017-Sep-12 02:00N 26°05' W 132°19'0 0.0 1014.7 23.4
2017-Sep-12 01:00N 26°05' W 132°19'0 0.0 1014.7 23.6
2017-Sep-12 00:00N 26°05' W 132°19'0 0.0 1014.5 23.4
2017-Sep-11 23:00N 26°05' W 132°19'2 0.9 1014.6 23.3
2017-Sep-11 21:00N 26°07' W 132°19'1 0.4 1015.7 23.3
2017-Sep-11 19:00N 26°06' W 132°19'   1016.8 23.2
Track history (hours):
 
Tides and Currents Weather Stations Pressure Air Temp Water Temp Dewpoint Dewpoint Depression Visibility Wind Speed Wind Dir Waves Ship Positions

Drifting buoy 21530

Last reported at 2017-Sep-21 19:00 UTC. Time now 2017-Sep-21 23:13 UTC.
Position N 24°21' W 134°11'.

Barometer 1019.6 mb
Water temperature 23.4 ° C

Date/timePositionNaut miles runAvg speedWind from/ knotsBaromVisibWave heightAir tempDewpointWater temp
2017-Sep-21 19:00N 24°21' W 134°11'1 0.5 1019.6 23.4
2017-Sep-21 18:00N 24°21' W 134°11'2 2.4 1019.7 23.4
2017-Sep-21 17:00N 24°23' W 134°10'0 0.0 1019.4 23.4
2017-Sep-21 16:00N 24°23' W 134°10'2 1.7 1018.8 23.4
2017-Sep-21 15:00N 24°23' W 134°08'1 0.8 1018.4 23.4
2017-Sep-21 14:00N 24°24' W 134°08'2 1.6 1018.0 23.4
2017-Sep-21 13:00N 24°25' W 134°07'3 2.8 1018.0 23.4
2017-Sep-21 12:00N 24°27' W 134°05'0 0.0 1017.7 23.4
2017-Sep-21 11:00N 24°27' W 134°05'0 0.0 1018.3 23.4
2017-Sep-21 07:00N 24°27' W 134°05'2 1.6 1018.9 23.5
2017-Sep-21 06:00N 24°27' W 134°03'1 0.8 1018.9 23.5
2017-Sep-21 05:00N 24°28' W 134°02'1 1.1 1018.4 23.4
2017-Sep-21 04:00N 24°28' W 134°01'1 0.8 1017.8 23.4
2017-Sep-21 03:00N 24°28' W 134°01'1 0.8 1017.6 23.4
2017-Sep-21 02:00N 24°29' W 134°00'2 2.4 1017.3 23.4
2017-Sep-21 01:00N 24°31' W 133°58'0 0.0
2017-Sep-21 00:00N 24°31' W 133°58'0 0.0 1017.1 23.4
2017-Sep-20 23:00N 24°31' W 133°58'5 1.2 1017.6 23.4
2017-Sep-20 19:00N 24°34' W 133°54'2 1.6 1019.5 23.2
2017-Sep-20 18:00N 24°35' W 133°53'1 0.8 1019.6 23.2
2017-Sep-20 17:00N 24°35' W 133°52'0 0.0 1019.2 23.1
2017-Sep-20 16:00N 24°35' W 133°52'1 1.3 1019.0 23.1
2017-Sep-20 15:00N 24°37' W 133°52'1 1.2 1018.6 23.1
2017-Sep-20 14:00N 24°37' W 133°50'2 1.8 1018.0 23.1
2017-Sep-20 13:00N 24°39' W 133°50'2 2.2 1018.0 23.1
2017-Sep-20 12:00N 24°39' W 133°53'4 4.1 1017.9 23.1
2017-Sep-20 11:00N 24°41' W 133°49'1 0.3 1018.0 23.1
2017-Sep-20 07:00N 24°42' W 133°48'0 0.0 1019.6 23.1
2017-Sep-20 06:00N 24°42' W 133°48'1 0.8 1019.5 23.1
2017-Sep-20 05:00N 24°43' W 133°47'0 0.0 1019.2 23.1
2017-Sep-20 04:00N 24°43' W 133°47'1 0.8 1018.6 23.1
2017-Sep-20 03:00N 24°43' W 133°47'1 0.8 1018.1 23.1
2017-Sep-20 02:00N 24°44' W 133°46'0 0.0 1018.0 23.1
2017-Sep-20 01:00N 24°44' W 133°46'1 0.8 1017.6 23.1
2017-Sep-20 00:00N 24°44' W 133°46'0 0.0 1017.8 23.1
2017-Sep-19 23:00N 24°44' W 133°46'3 1.4 1018.2 23.1
2017-Sep-19 21:00N 24°44' W 133°43'2 1.6 1019.3 23.1
2017-Sep-19 20:00N 24°46' W 133°41'0 0.0 1020.0 23.1
2017-Sep-19 19:00N 24°46' W 133°41'2 1.7 1020.2 23.0
2017-Sep-19 18:00N 24°46' W 133°40'1 0.5 1020.0 23.0
2017-Sep-19 17:00N 24°46' W 133°39'2 1.6 1019.6 23.0
2017-Sep-19 16:00N 24°47' W 133°38'0 0.0 1019.1 23.0
2017-Sep-19 15:00N 24°47' W 133°38'2 2.5 1018.7 23.0
2017-Sep-19 14:00N 24°49' W 133°35'1 0.8 1018.6 23.0
2017-Sep-19 13:00N 24°49' W 133°35'0 0.0 1018.2 23.0
2017-Sep-19 12:00N 24°49' W 133°35'5 4.7 1018.2 23.0
2017-Sep-19 11:00N 24°53' W 133°32'0 0.0 1018.4 23.0
2017-Sep-19 10:00N 24°53' W 133°32'0 0.0 1018.6 23.0
2017-Sep-19 07:00N 24°53' W 133°32'1 0.8 1019.5 23.0
2017-Sep-19 06:00N 24°54' W 133°32'1 0.6 1019.4 23.0
2017-Sep-19 05:00N 24°55' W 133°32'1 0.8 1019.2 23.1
2017-Sep-19 04:00N 24°55' W 133°31'1 0.8 1018.7 23.1
2017-Sep-19 03:00N 24°56' W 133°31'0 0.0 1018.2 23.1
2017-Sep-19 02:00N 24°56' W 133°31'1 0.5 1017.7 23.1
2017-Sep-19 01:00N 24°56' W 133°30'1 0.8 1017.8 23.1
2017-Sep-19 00:00N 24°56' W 133°29'0 0.0 1017.6 23.1
2017-Sep-18 23:00N 24°56' W 133°29'2 2.0 1018.0 23.1
2017-Sep-18 22:00N 24°58' W 133°28'1 0.3 1018.3 23.2
2017-Sep-18 19:00N 24°58' W 133°27'1 1.1 1019.7 23.1
2017-Sep-18 18:00N 24°58' W 133°26'1 0.8 1019.6 23.1
2017-Sep-18 17:00N 24°59' W 133°25'0 0.0 1019.3 23.0
2017-Sep-18 16:00N 24°59' W 133°25'2 2.3 1018.6 23.0
2017-Sep-18 15:00N 24°59' W 133°23'0 0.0 1018.0 23.0
2017-Sep-18 14:00N 24°59' W 133°23'2 1.6 1017.4 23.0
2017-Sep-18 13:00N 25°01' W 133°22'1 0.8 1017.2 23.0
2017-Sep-18 12:00N 25°01' W 133°21'4 2.0 1017.5 23.1
2017-Sep-18 10:00N 25°04' W 133°18'0 0.0 1018.0 23.1
2017-Sep-18 07:00N 25°04' W 133°18'1 1.2 1019.0 23.1
2017-Sep-18 06:00N 25°05' W 133°17'1 0.6 1018.8 23.1
2017-Sep-18 05:00N 25°05' W 133°17'1 0.8 1018.7 23.2
2017-Sep-18 04:00N 25°06' W 133°16'1 1.1 1018.1 23.2
2017-Sep-18 03:00N 25°06' W 133°15'2 1.9 1017.7 23.2
2017-Sep-18 02:00N 25°08' W 133°14'0 0.0 1017.5 23.2
2017-Sep-18 00:00N 25°08' W 133°14'4 1.9 1017.5 23.3
2017-Sep-17 22:00N 25°11' W 133°13'0 0.0 1018.2 23.3
2017-Sep-17 20:00N 25°11' W 133°13'1 0.5 1019.1 23.2
2017-Sep-17 19:00N 25°11' W 133°13'2 1.9 1019.4 23.1
2017-Sep-17 18:00N 25°13' W 133°13'1 0.8 1019.5 23.1
2017-Sep-17 17:00N 25°14' W 133°13'0 0.0 1019.2 23.1
2017-Sep-17 16:00N 25°14' W 133°13'0 0.0 1018.8 23.0
2017-Sep-17 15:00N 25°14' W 133°13'1 0.8 1018.6 23.0
2017-Sep-17 14:00N 25°14' W 133°12'1 0.5 1018.4 23.1
2017-Sep-17 13:00N 25°14' W 133°13'4 4.0 1017.8 23.1
2017-Sep-17 12:00N 25°17' W 133°09'0 0.0 1017.9 23.1
2017-Sep-17 10:00N 25°17' W 133°09'2 0.4 1018.9 23.1
2017-Sep-17 06:00N 25°18' W 133°08'1 1.3 1019.3 23.1
2017-Sep-17 05:00N 25°19' W 133°07'0 0.0 1018.7 23.2
2017-Sep-17 04:00N 25°19' W 133°07'3 2.6 1018.2 23.2
2017-Sep-17 03:00N 25°22' W 133°06'0 0.0 1017.8 23.2
2017-Sep-17 02:00N 25°22' W 133°06'1 0.8 1017.7 23.2
2017-Sep-17 01:00N 25°22' W 133°05'0 0.0 1017.9 23.2
2017-Sep-17 00:00N 25°22' W 133°05'1 1.2 1018.0 23.2
2017-Sep-16 23:00N 25°23' W 133°05'2 2.1 1018.3 23.2
2017-Sep-16 22:00N 25°25' W 133°04'0 0.0 1018.9 23.2
2017-Sep-16 19:00N 25°25' W 133°04'2 0.8 1020.6 23.2
2017-Sep-16 17:00N 25°26' W 133°03'0 0.0 1020.6 23.3
2017-Sep-16 16:00N 25°26' W 133°03'1 0.5 1020.0 23.3
2017-Sep-16 15:00N 25°26' W 133°02'1 0.8 1019.6 23.3
2017-Sep-16 14:00N 25°27' W 133°02'0 0.0 1019.0 23.3
2017-Sep-16 13:00N 25°27' W 133°02'4 3.7 1018.6 23.3
2017-Sep-16 12:00N 25°29' W 132°58'0 0.0 1018.6 23.3
2017-Sep-16 10:00N 25°29' W 132°58'0 0.0 1019.3 23.4
2017-Sep-16 07:00N 25°29' W 132°58'1 1.2 1020.1 23.4
2017-Sep-16 06:00N 25°29' W 132°57'0 0.0 1020.2 23.4
2017-Sep-16 05:00N 25°29' W 132°57'1 1.2 1019.8 23.4
2017-Sep-16 04:00N 25°30' W 132°56'1 0.8 1019.1 23.4
2017-Sep-16 03:00N 25°31' W 132°55'1 0.5 1018.6 23.4
2017-Sep-16 02:00N 25°31' W 132°55'1 0.8 1018.6 23.4
2017-Sep-16 01:00N 25°31' W 132°54'0 0.0 1018.4 23.4
2017-Sep-16 00:00N 25°31' W 132°54'4 3.6 1018.2 23.4
2017-Sep-15 23:00N 25°34' W 132°51'0 0.0 1018.2 23.4
2017-Sep-15 22:00N 25°34' W 132°51'1 0.2 1018.5 23.4
2017-Sep-15 19:00N 25°34' W 132°50'1 0.8 1020.0 23.3
2017-Sep-15 18:00N 25°34' W 132°50'0 0.0 1020.0 23.3
2017-Sep-15 17:00N 25°34' W 132°50'0 0.0 1019.7 23.3
2017-Sep-15 16:00N 25°34' W 132°50'1 1.3 1019.4 23.3
2017-Sep-15 15:00N 25°35' W 132°49'0 0.0 1018.8 23.2
2017-Sep-15 14:00N 25°35' W 132°49'2 2.5 1018.3 23.2
2017-Sep-15 13:00N 25°37' W 132°47'0 0.0 1017.8 23.2
2017-Sep-15 12:00N 25°37' W 132°47'1 0.2 1017.8 23.2
2017-Sep-15 07:00N 25°37' W 132°46'1 1.1 1019.0 23.3
2017-Sep-15 06:00N 25°37' W 132°45'1 0.6 1019.1 23.2
2017-Sep-15 05:00N 25°38' W 132°45'1 0.5 1018.8 23.3
2017-Sep-15 04:00N 25°38' W 132°44'1 0.6 1017.9 23.3
2017-Sep-15 03:00N 25°38' W 132°44'1 0.5 1017.2 23.4
2017-Sep-15 02:00N 25°38' W 132°44'1 0.8 1016.7 23.5
2017-Sep-15 01:00N 25°39' W 132°43'1 0.5 1016.4 23.5
2017-Sep-15 00:00N 25°39' W 132°43'0 0.0 1016.4 23.5
2017-Sep-14 23:00N 25°39' W 132°43'0 0.0 1016.8 23.5
2017-Sep-14 22:00N 25°39' W 132°43'2 0.8 1017.1 23.5
2017-Sep-14 19:00N 25°41' W 132°41'1 0.8 1018.6 23.2
2017-Sep-14 18:00N 25°41' W 132°40'1 0.5 1018.6 23.1
2017-Sep-14 17:00N 25°41' W 132°40'0 0.0 1018.2 23.1
2017-Sep-14 16:00N 25°41' W 132°40'1 0.6 1017.9 23.1
2017-Sep-14 14:00N 25°43' W 132°40'1 0.8 1016.8 23.1
2017-Sep-14 13:00N 25°43' W 132°39'1 0.8 1016.5 23.1
2017-Sep-14 12:00N 25°44' W 132°40'0 0.0 1016.2 23.1
2017-Sep-14 11:00N 25°44' W 132°40'1 0.3 1016.2 23.1
2017-Sep-14 07:00N 25°45' W 132°40'2 1.7 1017.1 23.1
2017-Sep-14 06:00N 25°46' W 132°38'0 0.0 1017.2 23.1
2017-Sep-14 05:00N 25°46' W 132°38'1 0.5 1016.7 23.1
2017-Sep-14 04:00N 25°46' W 132°39'1 0.6 1015.9 23.1
2017-Sep-14 03:00N 25°46' W 132°39'1 1.1 1015.6 23.2
2017-Sep-14 02:00N 25°46' W 132°38'1 0.8 1015.6 23.2
2017-Sep-14 01:00N 25°47' W 132°38'1 0.5 1015.6 23.2
2017-Sep-14 00:00N 25°47' W 132°38'1 0.8 1015.7 23.2
2017-Sep-13 23:00N 25°46' W 132°38'3 0.8 1015.7 23.2
2017-Sep-13 19:00N 25°49' W 132°36'1 1.2 1017.3 23.2
2017-Sep-13 18:00N 25°49' W 132°35'1 0.5 1017.5 23.2
2017-Sep-13 17:00N 25°49' W 132°35'1 1.3 1017.3 23.2
2017-Sep-13 16:00N 25°50' W 132°35'1 1.2 1017.1 23.2
2017-Sep-13 15:00N 25°52' W 132°35'0 0.0 1016.8 23.2
2017-Sep-13 14:00N 25°52' W 132°35'1 0.5 1016.5 23.2
2017-Sep-13 13:00N 25°52' W 132°34'1 0.8 1016.3 23.2
2017-Sep-13 12:00N 25°52' W 132°35'1 1.3 1016.3 23.1
2017-Sep-13 11:00N 25°53' W 132°34'1 0.2 1016.5 23.1
2017-Sep-13 06:00N 25°54' W 132°33'1 0.5 1017.5 23.2
2017-Sep-13 05:00N 25°54' W 132°32'1 0.6 1017.0 23.2
2017-Sep-13 04:00N 25°55' W 132°32'1 0.8 1016.3 23.3
2017-Sep-13 03:00N 25°55' W 132°32'1 0.5 1015.8 23.4
2017-Sep-13 02:00N 25°55' W 132°31'1 1.2 1015.4 23.5
2017-Sep-13 01:00N 25°56' W 132°30'0 0.0 1015.4 23.5
2017-Sep-13 00:00N 25°56' W 132°30'0 0.0 1015.5 23.8
2017-Sep-12 23:00N 25°56' W 132°30'3 0.9 1015.6 23.7
2017-Sep-12 20:00N 25°56' W 132°27'1 0.6 1017.0 23.2
2017-Sep-12 19:00N 25°56' W 132°27'1 0.8 1017.3 23.2
2017-Sep-12 18:00N 25°56' W 132°26'1 0.8 1017.3 23.2
2017-Sep-12 17:00N 25°57' W 132°26'1 0.6 1017.2 23.1
2017-Sep-12 16:00N 25°58' W 132°26'1 0.8 1016.6 23.1
2017-Sep-12 15:00N 25°58' W 132°25'1 0.6 1016.1 23.1
2017-Sep-12 14:00N 25°59' W 132°25'1 0.8 1015.8 23.1
2017-Sep-12 13:00N 25°59' W 132°25'1 0.5 1015.8 23.1
2017-Sep-12 12:00N 25°59' W 132°25'3 3.5 1015.7 23.1
2017-Sep-12 11:00N 26°01' W 132°22'1 0.2 1015.9 23.1
2017-Sep-12 06:00N 26°01' W 132°20'1 0.6 1016.5 23.2
2017-Sep-12 05:00N 26°02' W 132°20'1 0.8 1016.0 23.3
2017-Sep-12 04:00N 26°02' W 132°20'1 0.6 1015.4 23.3
2017-Sep-12 03:00N 26°03' W 132°20'2 1.9 1015.1 23.4
2017-Sep-12 02:00N 26°05' W 132°19'0 0.0 1014.7 23.4
2017-Sep-12 01:00N 26°05' W 132°19'0 0.0 1014.7 23.6
2017-Sep-12 00:00N 26°05' W 132°19'0 0.0 1014.5 23.4
2017-Sep-11 23:00N 26°05' W 132°19'2 0.9 1014.6 23.3
2017-Sep-11 21:00N 26°07' W 132°19'1 0.4 1015.7 23.3
2017-Sep-11 19:00N 26°06' W 132°19'   1016.8 23.2

Dump ship's entire track history